Time;durP1;ratioP1;P1;durP2;ratioP2;P2;SDS_P1;SDS_P2;PMS_P1;PMS_P2;Temp;Humidity;BMP_temperature;BMP_pressure;BME280_temperature;BME280_humidity;BME280_pressure;Samples;Min_cycle;Max_cycle;Signal;HPM_P1;HPM_P2
2023/11/26 00:01:36;;;;;;;;;;;;;;;1.63;89.98;98207.59;4992059;28;20053;-76
2023/11/26 00:04:02;;;;;;;1.10;1.10;;;;;;;1.64;89.70;98212.03;4997039;28;19917;-76
2023/11/26 00:06:27;;;;;;;1.10;1.10;;;;;;;1.59;89.68;98217.84;4994518;28;20034;-76
2023/11/26 00:08:53;;;;;;;1.10;1.10;;;;;;;1.55;89.75;98216.78;4991730;28;20100;-76
2023/11/26 00:11:18;;;;;;;1.10;1.10;;;;;;;1.64;89.66;98217.28;4995312;28;20057;-76
2023/11/26 00:13:45;;;;;;;1.10;1.10;;;;;;;1.53;89.82;98224.59;4993760;28;20033;-76
2023/11/26 00:16:10;;;;;;;1.10;1.10;;;;;;;1.52;89.50;98224.47;4992513;28;20188;-76
2023/11/26 00:18:37;;;;;;;1.00;1.00;;;;;;;1.48;89.94;98233.00;4995193;28;20531;-76
2023/11/26 00:21:03;;;;;;;;;;;;;;;1.49;89.85;98234.84;4994374;28;20048;-77
2023/11/26 00:23:28;;;;;;;1.10;1.10;;;;;;;1.44;89.76;98250.34;4996057;28;19921;-76
2023/11/26 00:25:54;;;;;;;1.10;1.10;;;;;;;1.36;90.18;98237.59;4994175;28;20093;-76
2023/11/26 00:28:19;;;;;;;1.10;1.10;;;;;;;1.16;90.28;98250.50;4998094;28;20558;-76
2023/11/26 00:30:45;;;;;;;1.05;1.05;;;;;;;1.22;90.44;98255.19;4992280;28;20053;-76
2023/11/26 00:33:11;;;;;;;1.00;1.00;;;;;;;1.18;90.75;98256.72;4990803;28;20576;-76
2023/11/26 00:35:36;;;;;;;1.10;1.10;;;;;;;1.25;90.45;98264.16;4993030;28;20496;-77
2023/11/26 00:38:02;;;;;;;1.05;1.05;;;;;;;1.37;90.19;98266.56;4994462;28;20040;-76
2023/11/26 00:40:27;;;;;;;1.10;1.10;;;;;;;1.41;89.69;98281.72;4991822;28;20376;-76
2023/11/26 00:42:53;;;;;;;1.10;1.10;;;;;;;1.35;89.51;98283.09;4995566;28;20038;-76
2023/11/26 00:45:19;;;;;;;1.10;1.10;;;;;;;1.42;90.20;98279.97;4989017;28;20050;-77
2023/11/26 00:47:45;;;;;;;1.10;1.10;;;;;;;1.45;89.77;98286.31;4998454;28;20022;-76
2023/11/26 00:50:14;;;;;;;1.00;1.00;;;;;;;1.41;89.64;98275.53;4995904;28;20040;-76
2023/11/26 00:52:39;;;;;;;1.10;1.10;;;;;;;1.39;89.78;98277.16;4988683;28;20034;-76
2023/11/26 00:55:06;;;;;;;1.00;1.00;;;;;;;1.44;89.35;98278.38;4997281;28;20088;-76
2023/11/26 00:57:31;;;;;;;1.20;1.20;;;;;;;1.41;89.75;98278.19;4998321;28;20045;-76
2023/11/26 00:59:57;;;;;;;1.00;1.00;;;;;;;1.30;89.29;98281.91;4999337;28;20581;-76
2023/11/26 01:02:24;;;;;;;1.20;1.20;;;;;;;1.26;90.18;98280.84;4997347;28;20052;-76
2023/11/26 01:04:50;;;;;;;1.02;1.02;;;;;;;1.25;90.45;98279.03;5003879;28;20030;-76
2023/11/26 01:07:17;;;;;;;1.10;1.10;;;;;;;1.36;90.40;98287.53;4986171;28;20766;-76
2023/11/26 01:09:42;;;;;;;1.20;1.20;;;;;;;1.28;90.43;98292.31;4995234;28;20054;-77
2023/11/26 01:12:08;;;;;;;1.10;1.10;;;;;;;1.28;90.17;98306.34;4996162;28;21540;-76
2023/11/26 01:14:33;;;;;;;1.00;1.00;;;;;;;1.39;90.38;98308.69;5003635;28;20045;-77
2023/11/26 01:16:59;;;;;;;1.10;1.10;;;;;;;1.34;90.29;98308.44;4999834;28;20044;-76
2023/11/26 01:19:24;;;;;;;1.10;1.10;;;;;;;1.44;90.36;98309.91;5004840;28;20052;-76
2023/11/26 01:21:49;;;;;;;1.00;1.00;;;;;;;1.35;90.06;98309.38;4995985;28;20046;-76
2023/11/26 01:24:15;;;;;;;1.10;1.10;;;;;;;1.31;90.13;98308.28;4998363;28;20034;-76
2023/11/26 01:26:41;;;;;;;1.10;1.10;;;;;;;1.32;90.06;98320.59;5012142;28;20057;-76
2023/11/26 01:29:06;;;;;;;1.10;1.10;;;;;;;1.38;90.21;98325.28;4996763;28;20961;-76
2023/11/26 01:31:32;;;;;;;1.10;1.10;;;;;;;1.41;89.92;98328.13;4996818;28;20037;-76
2023/11/26 01:33:59;;;;;;;1.10;1.10;;;;;;;1.32;89.98;98330.19;4995325;28;20392;-77
2023/11/26 01:36:24;;;;;;;1.10;1.10;;;;;;;1.39;90.10;98334.97;4993431;28;20384;-76
2023/11/26 01:38:50;;;;;;;1.10;1.10;;;;;;;1.38;89.46;98327.91;4986453;28;20559;-76
2023/11/26 01:41:15;;;;;;;1.10;1.10;;;;;;;1.34;89.92;98336.44;4999405;28;20049;-76
2023/11/26 01:43:41;;;;;;;1.00;1.00;;;;;;;1.33;89.55;98335.53;4995801;28;20041;-76
2023/11/26 01:46:09;;;;;;;1.00;1.00;;;;;;;1.31;90.09;98331.94;4993803;28;20034;-76
2023/11/26 01:48:36;;;;;;;1.10;1.10;;;;;;;1.31;89.98;98333.66;5001931;28;20388;-76
2023/11/26 01:51:05;;;;;;;1.10;1.10;;;;;;;1.30;90.58;98340.63;4995289;28;20038;-76
2023/11/26 01:53:31;;;;;;;1.10;1.10;;;;;;;1.29;89.66;98341.44;4997617;28;20940;-76
2023/11/26 01:55:58;;;;;;;1.00;1.00;;;;;;;1.23;89.81;98335.81;4999600;28;20555;-76
2023/11/26 01:58:23;;;;;;;1.10;1.10;;;;;;;1.12;89.70;98343.06;4976930;28;20065;-76
2023/11/26 02:00:51;;;;;;;1.02;1.02;;;;;;;1.00;90.14;98342.34;4996276;28;20042;-76
2023/11/26 02:03:17;;;;;;;1.10;1.10;;;;;;;0.94;89.92;98344.59;4977156;28;20026;-76
2023/11/26 02:05:45;;;;;;;1.08;1.08;;;;;;;0.91;90.37;98354.91;4994589;28;20038;-76
2023/11/26 02:08:12;;;;;;;1.10;1.10;;;;;;;0.86;90.39;98358.97;4995457;28;20026;-76
2023/11/26 02:10:37;;;;;;;1.00;1.00;;;;;;;0.92;90.28;98362.91;4996126;28;20052;-76
2023/11/26 02:13:04;;;;;;;1.10;1.10;;;;;;;0.83;90.56;98371.94;4993432;28;20034;-76
2023/11/26 02:15:31;;;;;;;1.10;1.10;;;;;;;0.80;90.59;98363.88;4993810;28;20034;-76
2023/11/26 02:17:56;;;;;;;1.08;1.08;;;;;;;0.87;90.57;98364.34;4979164;28;20444;-76
2023/11/26 02:20:22;;;;;;;1.10;1.10;;;;;;;0.89;90.72;98364.44;5000596;28;20048;-75
2023/11/26 02:22:48;;;;;;;1.10;1.10;;;;;;;1.03;90.67;98369.69;4996137;28;20030;-76
2023/11/26 02:25:14;;;;;;;1.10;1.10;;;;;;;1.06;89.92;98361.09;4993603;28;20037;-76
2023/11/26 02:27:39;;;;;;;1.00;1.00;;;;;;;1.04;89.92;98365.34;4996411;28;20030;-76
2023/11/26 02:30:06;;;;;;;1.08;1.08;;;;;;;1.01;89.89;98366.09;4992229;28;20333;-76
2023/11/26 02:32:31;;;;;;;1.10;1.10;;;;;;;0.91;89.92;98376.84;4996402;28;20077;-76
2023/11/26 02:34:57;;;;;;;1.00;1.00;;;;;;;0.87;89.43;98363.44;4997561;28;20108;-76
2023/11/26 02:37:23;;;;;;;1.10;1.10;;;;;;;0.92;89.24;98369.88;4995992;28;20037;-75
2023/11/26 02:39:48;;;;;;;1.10;1.10;;;;;;;0.90;89.58;98376.75;4996500;28;20030;-75
2023/11/26 02:42:14;;;;;;;1.10;1.10;;;;;;;1.00;89.63;98377.38;4995304;28;20034;-75
2023/11/26 02:44:39;;;;;;;1.10;1.10;;;;;;;0.94;89.97;98378.75;4996111;28;20166;-76
2023/11/26 02:47:07;;;;;;;1.00;1.00;;;;;;;1.00;89.62;98377.38;4996939;28;20052;-75
2023/11/26 02:49:33;;;;;;;1.10;1.10;;;;;;;1.03;89.23;98377.56;4998356;28;20057;-76
2023/11/26 02:51:58;;;;;;;1.00;1.00;;;;;;;1.02;89.43;98380.13;4995046;28;20772;-76
2023/11/26 02:54:24;;;;;;;1.10;1.10;;;;;;;1.03;89.73;98372.31;4994296;28;20121;-76
2023/11/26 02:56:50;;;;;;;1.10;1.10;;;;;;;1.00;89.16;98373.84;4996637;28;20057;-75
2023/11/26 02:59:16;;;;;;;1.10;1.10;;;;;;;0.90;89.70;98374.13;4991442;28;20041;-76
2023/11/26 03:01:42;;;;;;;1.10;1.10;;;;;;;0.87;90.09;98377.47;4998548;28;20113;-75
2023/11/26 03:04:08;;;;;;;1.10;1.10;;;;;;;0.87;89.66;98381.81;4995063;28;20061;-77
2023/11/26 03:06:35;;;;;;;1.10;1.10;;;;;;;0.96;90.15;98385.00;4995533;28;20048;-76
2023/11/26 03:14:32;;;;;;;1.10;1.10;;;;;;;1.12;89.43;98390.38;5001930;28;20026;-77
2023/11/26 03:16:58;;;;;;;1.02;1.02;;;;;;;1.33;88.70;98384.56;4993248;28;20379;-76
2023/11/26 03:19:23;;;;;;;0.93;0.93;;;;;;;1.12;89.03;98393.00;5000433;28;20445;-76
2023/11/26 03:21:50;;;;;;;1.00;1.00;;;;;;;1.12;88.95;98389.47;4996701;28;20464;-76
2023/11/26 03:24:17;;;;;;;1.00;1.00;;;;;;;1.18;88.42;98388.09;4999572;28;20066;-76
2023/11/26 03:26:43;;;;;;;1.02;1.02;;;;;;;1.19;88.44;98389.91;4995408;28;20026;-76
2023/11/26 03:29:09;;;;;;;1.00;1.00;;;;;;;1.19;88.89;98392.53;4992523;28;20693;-76
2023/11/26 03:31:35;;;;;;;0.93;0.93;;;;;;;1.18;88.83;98392.44;4994880;28;20496;-77
2023/11/26 03:34:08;;;;;;;1.10;1.10;;;;;;;1.17;89.00;98393.28;4992337;28;20113;-76
2023/11/26 03:36:35;;;;;;;1.10;1.10;;;;;;;1.16;88.76;98386.22;4996627;28;20053;-76
2023/11/26 03:39:01;;;;;;;1.10;1.10;;;;;;;1.09;89.14;98379.66;5012197;28;20041;-76
2023/11/26 03:41:27;;;;;;;1.10;1.10;;;;;;;1.05;89.12;98388.16;4992858;28;20042;-76
2023/11/26 03:43:52;;;;;;;1.05;1.05;;;;;;;1.20;88.98;98381.22;4992671;28;20034;-77
2023/11/26 03:46:18;;;;;;;1.00;1.00;;;;;;;1.26;88.97;98384.22;4997249;28;20018;-77
2023/11/26 03:48:45;;;;;;;1.10;1.10;;;;;;;1.22;88.69;98382.22;4997171;28;20022;-77
2023/11/26 03:51:16;;;;;;;1.10;1.10;;;;;;;1.22;89.26;98383.94;4993942;28;20808;-77
2023/11/26 03:53:41;;;;;;;1.00;1.00;;;;;;;1.12;89.75;98379.84;4996342;28;20518;-77
2023/11/26 03:56:06;;;;;;;1.00;1.00;;;;;;;1.20;89.22;98375.06;4994398;28;20038;-77
2023/11/26 03:58:32;;;;;;;1.10;1.10;;;;;;;1.15;89.72;98382.69;4996773;28;20057;-77
2023/11/26 04:00:58;;;;;;;1.00;1.00;;;;;;;1.20;89.88;98386.47;4995904;28;20858;-76
2023/11/26 04:03:25;;;;;;;1.10;1.10;;;;;;;1.20;89.74;98393.47;4993228;28;20049;-77
2023/11/26 04:05:50;;;;;;;1.10;1.10;;;;;;;1.16;89.91;98404.59;4994382;28;20084;-76
2023/11/26 04:08:16;;;;;;;1.10;1.10;;;;;;;1.01;90.65;98408.13;4999377;28;20042;-77
2023/11/26 04:10:41;;;;;;;1.10;1.10;;;;;;;1.20;90.09;98412.75;4995034;28;20045;-77
2023/11/26 04:13:07;;;;;;;1.10;1.10;;;;;;;1.11;90.36;98406.03;4979278;28;20040;-77
2023/11/26 04:15:36;;;;;;;1.00;1.00;;;;;;;1.00;91.10;98411.53;4995992;28;20045;-77
2023/11/26 04:18:01;;;;;;;;;;;;;;;1.10;90.47;98412.09;4993482;28;20030;-77
2023/11/26 04:20:28;;;;;;;1.10;1.10;;;;;;;1.08;90.62;98414.63;5000457;28;19918;-76
2023/11/26 04:22:53;;;;;;;1.00;1.00;;;;;;;0.98;90.94;98417.50;4994169;28;20022;-76
2023/11/26 04:25:18;;;;;;;1.10;1.10;;;;;;;1.09;91.03;98412.91;4994316;28;20207;-76
2023/11/26 04:27:44;;;;;;;1.08;1.08;;;;;;;1.01;90.64;98418.63;4992214;28;20030;-77
2023/11/26 04:30:10;;;;;;;1.10;1.10;;;;;;;0.93;90.61;98419.88;4999070;28;20659;-77
2023/11/26 04:32:37;;;;;;;1.10;1.10;;;;;;;0.78;91.58;98421.56;4999582;28;20100;-77
2023/11/26 04:35:02;;;;;;;1.10;1.10;;;;;;;0.80;91.58;98426.88;4995421;28;20034;-77
2023/11/26 04:37:27;;;;;;;1.08;1.08;;;;;;;0.78;91.87;98426.81;4992448;28;20395;-77
2023/11/26 04:39:54;;;;;;;1.10;1.10;;;;;;;0.73;92.19;98425.63;4997333;28;20209;-77
2023/11/26 04:42:19;;;;;;;1.10;1.10;;;;;;;0.77;92.46;98432.88;4997086;28;20073;-76
2023/11/26 04:44:45;;;;;;;1.10;1.10;;;;;;;0.77;92.64;98441.66;4998689;28;20113;-75
2023/11/26 04:47:10;;;;;;;1.10;1.10;;;;;;;0.91;92.71;98433.69;4996488;28;20030;-76
2023/11/26 04:49:36;;;;;;;1.00;1.00;;;;;;;1.00;92.67;98445.66;4997610;28;20112;-76
2023/11/26 04:52:01;;;;;;;1.10;1.10;;;;;;;0.99;92.44;98443.88;4997261;28;20145;-76
2023/11/26 04:54:27;;;;;;;1.05;1.05;;;;;;;1.01;92.46;98442.25;5000143;28;20121;-76
2023/11/26 04:56:53;;;;;;;1.00;1.00;;;;;;;0.95;92.03;98438.31;4995070;28;20734;-76
2023/11/26 04:59:19;;;;;;;1.10;1.10;;;;;;;0.93;92.21;98453.09;4981141;28;20859;-76
2023/11/26 05:01:48;;;;;;;1.00;1.00;;;;;;;1.07;91.99;98452.22;4998949;28;20476;-77
2023/11/26 05:04:15;;;;;;;1.00;1.00;;;;;;;1.01;91.88;98455.41;4995879;28;20432;-76
2023/11/26 05:06:42;;;;;;;1.00;1.00;;;;;;;1.15;92.13;98458.88;4997712;28;20037;-76
2023/11/26 05:09:11;;;;;;;1.00;1.00;;;;;;;1.26;92.16;98459.50;4996981;28;20117;-76
2023/11/26 05:11:38;;;;;;;1.00;1.00;;;;;;;1.30;91.70;98460.63;4991694;28;20050;-77
2023/11/26 05:14:04;;;;;;;1.10;1.10;;;;;;;1.33;91.35;98460.78;4994858;28;20484;-76
2023/11/26 05:16:29;;;;;;;1.10;1.10;;;;;;;1.21;91.18;98471.47;4996120;28;20038;-76
2023/11/26 05:18:54;;;;;;;1.08;1.08;;;;;;;1.30;90.97;98456.25;4995917;28;20029;-77
2023/11/26 05:21:20;;;;;;;1.00;1.00;;;;;;;1.19;90.86;98465.19;4996429;28;20042;-76
2023/11/26 05:23:45;;;;;;;1.10;1.10;;;;;;;1.21;91.00;98471.47;4994303;28;20038;-77
2023/11/26 05:26:13;;;;;;;1.10;1.10;;;;;;;1.14;91.45;98471.88;4997086;28;20053;-76
2023/11/26 05:28:39;;;;;;;1.10;1.10;;;;;;;1.15;91.17;98476.31;4991155;28;20041;-76
2023/11/26 05:31:04;;;;;;;1.00;1.00;;;;;;;1.22;91.46;98479.44;4995913;28;20034;-76
2023/11/26 05:33:30;;;;;;;1.10;1.10;;;;;;;1.35;91.03;98480.19;4997912;28;20065;-76
2023/11/26 05:35:57;;;;;;;1.08;1.08;;;;;;;1.27;91.12;98488.50;4996347;28;20026;-77
2023/11/26 05:38:28;;;;;;;1.00;1.00;;;;;;;1.32;91.24;98483.53;4998132;28;20026;-76
2023/11/26 05:40:53;;;;;;;0.90;0.90;;;;;;;1.28;91.15;98490.31;4993150;28;20068;-77
2023/11/26 05:43:19;;;;;;;1.00;1.00;;;;;;;1.28;91.03;98482.44;4999247;28;20095;-76
2023/11/26 05:45:47;;;;;;;1.00;1.00;;;;;;;1.28;91.44;98487.69;4998008;28;20029;-77
2023/11/26 05:48:20;;;;;;;1.00;1.00;;;;;;;1.29;91.19;98491.22;4993329;28;20038;-77
2023/11/26 05:50:46;;;;;;;0.93;0.93;;;;;;;1.25;91.59;98490.16;4996780;28;20049;-77
2023/11/26 05:53:12;;;;;;;1.00;1.00;;;;;;;1.24;91.51;98495.28;4996798;28;20388;-77
2023/11/26 05:55:40;;;;;;;1.02;1.02;;;;;;;1.31;92.09;98500.13;4997423;28;20018;-77
2023/11/26 05:58:09;;;;;;;1.00;1.00;;;;;;;1.19;91.49;98496.72;4996745;28;20365;-77
2023/11/26 06:00:34;;;;;;;1.00;1.00;;;;;;;1.22;91.27;98497.81;4995823;28;20030;-76
2023/11/26 06:03:00;;;;;;;1.00;1.00;;;;;;;1.22;92.21;98497.81;4996095;28;20149;-77
2023/11/26 06:05:41;;;;;;;1.10;1.10;;;;;;;1.26;91.90;98497.22;4998917;28;20034;-77
2023/11/26 06:08:09;;;;;;;1.10;1.10;;;;;;;1.20;91.64;98495.94;4976278;28;20034;-77
2023/11/26 06:10:38;;;;;;;1.00;1.00;;;;;;;1.26;91.05;98501.56;4996913;28;20059;-76
2023/11/26 06:13:06;;;;;;;1.00;1.00;;;;;;;1.19;91.54;98501.97;4996439;28;20045;-77
2023/11/26 06:15:37;;;;;;;0.90;0.90;;;;;;;1.14;91.36;98506.94;4994021;28;20642;-77
2023/11/26 06:18:03;;;;;;;1.00;1.00;;;;;;;1.08;91.24;98503.94;4998989;28;20023;-77
2023/11/26 06:20:31;;;;;;;1.10;1.10;;;;;;;1.05;91.09;98514.25;4989855;28;20030;-78
2023/11/26 06:22:59;;;;;;;1.00;1.00;;;;;;;1.14;91.54;98513.94;4981964;28;20113;-77
2023/11/26 06:25:25;;;;;;;1.00;1.00;;;;;;;1.09;91.40;98518.91;4995621;28;20124;-77
2023/11/26 06:27:57;;;;;;;1.00;1.00;;;;;;;1.11;91.54;98516.38;4996921;28;20066;-77
2023/11/26 06:30:23;;;;;;;1.00;1.00;;;;;;;1.11;90.95;98509.41;5001331;28;20037;-77
2023/11/26 06:32:48;;;;;;;1.08;1.08;;;;;;;1.11;91.40;98513.75;4999692;28;20048;-77
2023/11/26 06:35:14;;;;;;;1.05;1.05;;;;;;;1.12;91.51;98518.19;4996044;28;20038;-77
2023/11/26 06:37:45;;;;;;;1.00;1.00;;;;;;;1.12;91.22;98507.69;4998627;28;20076;-77
2023/11/26 06:40:12;;;;;;;1.00;1.00;;;;;;;1.21;91.82;98506.53;5011735;28;20050;-76
2023/11/26 06:42:43;;;;;;;1.10;1.10;;;;;;;1.23;91.60;98512.78;4994187;28;20053;-76
2023/11/26 06:45:10;;;;;;;1.10;1.10;;;;;;;1.33;91.82;98508.09;4992901;28;20037;-76
2023/11/26 06:47:38;;;;;;;1.00;1.00;;;;;;;1.40;91.84;98495.44;4993292;28;20038;-75
2023/11/26 06:50:06;;;;;;;1.10;1.10;;;;;;;1.27;91.43;98506.00;4996132;28;20049;-76
2023/11/26 06:52:33;;;;;;;1.05;1.05;;;;;;;1.39;91.49;98509.38;4999027;28;20034;-76
2023/11/26 06:54:59;;;;;;;1.10;1.10;;;;;;;1.54;90.99;98514.66;4996512;28;20657;-75
2023/11/26 06:57:24;;;;;;;1.00;1.00;;;;;;;1.56;90.91;98530.53;4995935;28;20035;-75
2023/11/26 06:59:50;;;;;;;1.10;1.10;;;;;;;1.41;91.10;98523.53;4996697;28;20052;-75
2023/11/26 07:02:15;;;;;;;1.10;1.10;;;;;;;1.32;91.33;98532.56;4996042;28;20026;-75
2023/11/26 07:04:41;;;;;;;1.00;1.00;;;;;;;1.24;90.90;98551.38;4995617;28;20029;-76
2023/11/26 07:07:06;;;;;;;1.10;1.10;;;;;;;1.22;90.76;98552.09;4995894;28;20034;-77
2023/11/26 07:09:32;;;;;;;1.00;1.00;;;;;;;0.95;90.02;98544.28;4997802;28;20419;-76
2023/11/26 07:11:58;;;;;;;1.00;1.00;;;;;;;0.69;90.19;98541.75;4997758;28;20021;-76
2023/11/26 07:14:23;;;;;;;1.10;1.10;;;;;;;0.47;90.19;98561.34;4996532;28;20032;-77
2023/11/26 07:16:52;;;;;;;1.10;1.10;;;;;;;0.46;91.31;98558.63;4994381;28;20022;-77
2023/11/26 07:19:20;;;;;;;1.08;1.08;;;;;;;0.42;91.64;98559.22;4993234;28;20485;-77
2023/11/26 07:21:45;;;;;;;1.00;1.00;;;;;;;0.34;92.16;98571.88;4994867;28;20515;-78
2023/11/26 07:24:11;;;;;;;1.10;1.10;;;;;;;0.38;92.40;98575.56;4994365;28;20053;-77
2023/11/26 07:26:36;;;;;;;1.10;1.10;;;;;;;0.32;92.35;98580.41;4994714;28;20122;-77
2023/11/26 07:29:02;;;;;;;1.00;1.00;;;;;;;0.45;92.40;98580.44;4975907;28;20048;-78
2023/11/26 07:31:29;;;;;;;1.00;1.00;;;;;;;0.50;91.92;98577.28;4993420;28;20058;-77
2023/11/26 07:33:54;;;;;;;1.00;1.00;;;;;;;0.57;91.65;98578.59;4976335;28;20725;-77
2023/11/26 07:36:24;;;;;;;1.10;1.10;;;;;;;0.70;91.99;98585.56;4998107;28;20492;-77
2023/11/26 07:38:51;;;;;;;1.10;1.10;;;;;;;0.77;92.20;98593.03;4993720;28;20154;-77
2023/11/26 07:41:16;;;;;;;1.10;1.10;;;;;;;0.80;92.52;98592.31;4993980;28;20125;-75
2023/11/26 07:43:42;;;;;;;1.10;1.10;;;;;;;0.80;92.20;98587.06;4993631;28;20133;-75
2023/11/26 07:46:09;;;;;;;1.10;1.10;;;;;;;0.77;92.05;98593.94;4991799;28;20077;-77
2023/11/26 07:48:36;;;;;;;1.10;1.10;;;;;;;0.86;92.40;98595.31;4993954;28;20514;-77
2023/11/26 07:51:03;;;;;;;0.90;0.90;;;;;;;0.69;92.37;98594.25;4994903;28;20482;-76
2023/11/26 07:53:37;;;;;;;;;;;;;;;0.59;92.45;98595.38;4995470;28;20044;-77
2023/11/26 07:56:04;;;;;;;1.10;1.10;;;;;;;0.62;92.53;98595.53;4994081;28;19918;-76
2023/11/26 07:58:31;;;;;;;1.10;1.10;;;;;;;0.66;92.23;98596.66;4995974;28;20014;-76
2023/11/26 08:01:05;;;;;;;1.10;1.10;;;;;;;0.87;92.04;98594.53;4994998;28;20188;-76
2023/11/26 08:03:31;;;;;;;1.10;1.10;;;;;;;0.92;92.42;98594.03;4992690;28;20488;-76
2023/11/26 08:05:57;;;;;;;1.10;1.10;;;;;;;1.10;91.93;98609.13;4994593;28;20025;-76
2023/11/26 08:08:23;;;;;;;1.10;1.10;;;;;;;0.92;91.63;98603.63;4988711;28;20049;-76
2023/11/26 08:10:52;;;;;;;1.10;1.10;;;;;;;0.85;91.42;98610.19;4991948;28;20069;-77
2023/11/26 08:13:22;;;;;;;1.05;1.05;;;;;;;0.80;91.92;98603.72;4995451;28;20126;-76
2023/11/26 08:15:56;;;;;;;1.10;1.10;;;;;;;0.80;91.98;98610.69;4995158;28;20034;-76
2023/11/26 08:18:22;;;;;;;1.10;1.10;;;;;;;0.96;92.16;98609.19;4992894;28;20045;-76
2023/11/26 08:20:58;;;;;;;1.00;1.00;;;;;;;1.16;91.52;98612.16;5001093;28;20045;-76
2023/11/26 08:23:25;;;;;;;1.10;1.10;;;;;;;1.20;91.43;98611.56;4996562;28;20044;-77
2023/11/26 08:25:51;;;;;;;1.10;1.10;;;;;;;1.02;90.59;98612.19;4992671;28;20038;-77
2023/11/26 08:28:16;;;;;;;1.10;1.10;;;;;;;0.98;91.24;98614.50;5009063;28;20033;-77
2023/11/26 08:30:44;;;;;;;1.00;1.00;;;;;;;1.07;90.86;98608.94;4992203;28;20038;-77
2023/11/26 08:33:12;;;;;;;1.00;1.00;;;;;;;1.20;91.35;98611.56;4990741;28;20026;-77
2023/11/26 08:35:37;;;;;;;1.10;1.10;;;;;;;1.25;91.10;98611.03;4991221;28;20383;-76
2023/11/26 08:38:05;;;;;;;1.10;1.10;;;;;;;1.34;90.48;98610.66;4992276;28;20566;-76
2023/11/26 08:40:34;;;;;;;1.00;1.00;;;;;;;1.21;90.32;98616.00;5000058;28;20041;-76
2023/11/26 08:43:01;;;;;;;1.10;1.10;;;;;;;1.47;90.86;98618.53;4992297;28;20034;-77
2023/11/26 08:45:27;;;;;;;1.10;1.10;;;;;;;1.42;90.24;98614.69;4994725;28;20559;-77
2023/11/26 08:47:53;;;;;;;1.10;1.10;;;;;;;1.36;91.18;98613.41;4995817;28;20044;-76
2023/11/26 08:50:18;;;;;;;1.10;1.10;;;;;;;1.59;90.65;98607.88;4995633;28;20113;-77
2023/11/26 08:52:44;;;;;;;1.10;1.10;;;;;;;1.72;89.59;98614.78;4994302;28;20038;-75
2023/11/26 08:55:15;;;;;;;1.10;1.10;;;;;;;1.42;89.91;98613.78;4992793;28;20046;-77
2023/11/26 08:57:41;;;;;;;1.10;1.10;;;;;;;1.48;90.70;98619.41;5009710;28;20026;-76
2023/11/26 09:00:10;;;;;;;1.10;1.10;;;;;;;1.71;90.44;98618.22;5000006;28;20451;-77
2023/11/26 09:02:40;;;;;;;1.05;1.05;;;;;;;1.67;89.79;98611.88;4995293;28;20058;-76
2023/11/26 09:05:10;;;;;;;1.10;1.10;;;;;;;1.93;89.73;98608.22;4995438;28;20057;-77
2023/11/26 09:07:45;;;;;;;1.10;1.10;;;;;;;1.91;88.96;98606.28;4991761;28;20041;-76
2023/11/26 09:10:19;;;;;;;1.02;1.02;;;;;;;2.00;88.91;98609.47;4991777;28;20736;-76
2023/11/26 09:12:44;;;;;;;1.10;1.10;;;;;;;1.72;89.28;98618.31;4994751;28;20068;-76
2023/11/26 09:15:11;;;;;;;1.10;1.10;;;;;;;1.69;89.24;98618.16;4996841;28;20136;-77
2023/11/26 09:17:37;;;;;;;1.02;1.02;;;;;;;1.76;89.02;98611.53;4998585;28;20018;-77
2023/11/26 09:20:04;;;;;;;1.05;1.05;;;;;;;2.05;88.71;98615.91;4995469;28;20034;-77
2023/11/26 09:22:32;;;;;;;1.10;1.10;;;;;;;2.22;88.14;98625.75;4994384;28;20034;-77
2023/11/26 09:24:58;;;;;;;0.90;0.90;;;;;;;2.07;87.72;98623.94;4999552;28;20126;-77
2023/11/26 09:27:23;;;;;;;1.00;1.00;;;;;;;2.15;88.90;98617.38;4984752;28;20829;-76
2023/11/26 09:29:49;;;;;;;1.00;1.00;;;;;;;2.10;87.29;98619.75;4993845;28;20038;-76
2023/11/26 09:32:14;;;;;;;1.10;1.10;;;;;;;2.23;86.97;98616.13;5000052;28;20037;-76
2023/11/26 09:34:40;;;;;;;1.00;1.00;;;;;;;2.52;86.86;98612.56;4997146;28;20030;-74
2023/11/26 09:37:06;;;;;;;1.00;1.00;;;;;;;2.56;86.34;98619.84;4997360;28;20496;-76
2023/11/26 09:39:35;;;;;;;1.00;1.00;;;;;;;2.62;85.88;98616.66;4994771;28;20029;-75
2023/11/26 09:42:04;;;;;;;1.00;1.00;;;;;;;2.76;85.74;98611.34;4993482;28;20038;-76
2023/11/26 09:44:30;;;;;;;1.10;1.10;;;;;;;2.77;85.32;98612.25;4993505;28;20468;-76
2023/11/26 09:47:06;;;;;;;1.10;1.10;;;;;;;2.28;87.00;98607.69;4997954;28;20033;-77
2023/11/26 09:49:46;;;;;;;1.00;1.00;;;;;;;2.27;87.79;98608.50;4993099;28;20065;-76
2023/11/26 09:52:14;;;;;;;1.00;1.00;;;;;;;2.56;86.61;98606.69;4997680;28;20141;-78
2023/11/26 09:54:41;;;;;;;1.00;1.00;;;;;;;2.55;85.87;98610.13;4987381;28;20064;-76
2023/11/26 09:57:09;;;;;;;1.00;1.00;;;;;;;2.62;85.86;98611.38;4980123;28;20049;-77
2023/11/26 09:59:39;;;;;;;1.00;1.00;;;;;;;2.51;87.00;98606.41;4982935;28;20493;-77
2023/11/26 10:02:09;;;;;;;1.10;1.10;;;;;;;2.58;86.82;98610.28;4988773;28;20030;-76
2023/11/26 10:04:50;;;;;;;1.00;1.00;;;;;;;2.66;86.97;98613.38;4998312;28;20213;-78
2023/11/26 10:07:31;;;;;;;1.00;1.00;;;;;;;2.75;86.18;98606.00;4989105;28;20496;-76
2023/11/26 10:10:09;;;;;;;1.00;1.00;;;;;;;2.89;85.45;98605.06;4990984;28;20026;-76
2023/11/26 10:13:00;;;;;;;1.00;1.00;;;;;;;2.80;85.76;98608.09;4984834;28;20049;-76
2023/11/26 10:15:30;;;;;;;1.05;1.05;;;;;;;2.98;85.02;98602.06;4993390;28;20033;-76
2023/11/26 10:18:07;;;;;;;1.00;1.00;;;;;;;3.13;85.79;98599.38;4984659;28;20037;-76
2023/11/26 10:20:42;;;;;;;1.00;1.00;;;;;;;3.19;85.64;98595.34;4989031;28;20054;-76
2023/11/26 10:23:10;;;;;;;1.05;1.05;;;;;;;3.17;85.28;98589.09;4985308;28;20113;-77
2023/11/26 10:25:41;;;;;;;0.93;0.93;;;;;;;3.37;84.78;98584.00;4987376;28;20081;-77
2023/11/26 10:28:13;;;;;;;1.00;1.00;;;;;;;3.25;85.36;98587.75;4994526;28;20050;-77
2023/11/26 10:30:39;;;;;;;1.10;1.10;;;;;;;2.95;86.40;98586.06;4986234;28;20507;-77
2023/11/26 10:33:07;;;;;;;0.90;0.90;;;;;;;2.79;87.16;98584.28;4993220;28;20036;-78
2023/11/26 10:35:53;;;;;;;1.10;1.10;;;;;;;2.89;86.49;98581.34;4985632;28;20061;-77
2023/11/26 10:38:24;;;;;;;1.00;1.00;;;;;;;2.80;87.10;98573.84;4988473;28;20022;-77
2023/11/26 10:40:51;;;;;;;1.00;1.00;;;;;;;2.75;87.16;98577.94;4986740;28;20076;-77
2023/11/26 10:43:20;;;;;;;1.00;1.00;;;;;;;2.86;86.58;98581.16;4969316;28;20027;-75
2023/11/26 10:45:47;;;;;;;1.00;1.00;;;;;;;2.79;86.80;98579.03;4987812;28;20126;-77
2023/11/26 10:48:14;;;;;;;1.10;1.10;;;;;;;2.64;88.00;98576.44;4993070;28;20108;-78
2023/11/26 10:50:43;;;;;;;1.00;1.00;;;;;;;2.80;88.24;98576.47;4988153;28;20108;-77
2023/11/26 10:53:21;;;;;;;1.02;1.02;;;;;;;2.87;87.84;98569.81;4992032;28;20404;-78
2023/11/26 10:55:51;;;;;;;1.02;1.02;;;;;;;3.05;86.84;98568.22;5004023;28;20042;-78
2023/11/26 10:58:19;;;;;;;1.05;1.05;;;;;;;3.24;87.04;98561.31;4988561;28;20041;-77
2023/11/26 11:00:52;;;;;;;1.00;1.00;;;;;;;3.56;85.95;98557.78;4994525;28;20100;-78
2023/11/26 11:03:22;;;;;;;0.95;0.95;;;;;;;3.88;84.10;98550.66;4989110;28;20030;-78
2023/11/26 11:05:47;;;;;;;0.90;0.90;;;;;;;4.20;83.55;98549.69;5005669;28;20030;-79
2023/11/26 11:08:15;;;;;;;1.00;1.00;;;;;;;4.47;81.06;98550.19;4993147;28;20537;-78
2023/11/26 11:10:56;;;;;;;1.00;1.00;;;;;;;4.04;82.70;98548.91;4989384;28;20084;-77
2023/11/26 11:13:23;;;;;;;1.00;1.00;;;;;;;4.18;82.95;98544.34;4991579;28;20451;-78
2023/11/26 11:15:49;;;;;;;0.90;0.90;;;;;;;3.90;83.92;98544.66;4991246;28;20042;-78
2023/11/26 11:18:44;;;;;;;0.90;0.90;;;;;;;3.85;84.81;98551.41;4991293;28;20503;-77
2023/11/26 11:21:16;;;;;;;1.00;1.00;;;;;;;3.79;85.37;98544.09;4987339;28;20056;-77
2023/11/26 11:23:41;;;;;;;1.00;1.00;;;;;;;3.52;86.02;98546.16;4985818;28;20403;-76
2023/11/26 11:26:09;;;;;;;1.00;1.00;;;;;;;4.16;86.15;98543.34;4989239;28;20037;-77
2023/11/26 11:28:35;;;;;;;;;;;;;;;4.06;84.32;98544.59;4992554;28;20443;-77
2023/11/26 11:31:01;;;;;;;0.90;0.90;;;;;;;4.15;85.01;98546.81;4985853;28;20055;-77
2023/11/26 11:33:26;;;;;;;1.00;1.00;;;;;;;3.95;85.80;98537.88;4989051;28;20138;-77
2023/11/26 11:35:52;;;;;;;1.00;1.00;;;;;;;3.95;86.19;98542.25;4989441;28;20065;-77
2023/11/26 11:38:18;;;;;;;1.00;1.00;;;;;;;3.76;85.40;98540.38;4988593;28;20045;-76
2023/11/26 11:40:59;;;;;;;1.00;1.00;;;;;;;3.90;85.92;98544.66;4997394;28;20042;-76
2023/11/26 11:43:30;;;;;;;1.00;1.00;;;;;;;4.04;84.17;98540.09;4988033;28;20045;-78
2023/11/26 11:45:56;;;;;;;0.95;0.95;;;;;;;4.11;84.87;98534.28;4983769;28;20059;-76
2023/11/26 11:48:39;;;;;;;1.00;1.00;;;;;;;4.32;84.24;98538.03;4993288;28;20400;-77
2023/11/26 11:51:31;;;;;;;0.90;0.90;;;;;;;4.41;83.54;98539.28;4988785;28;20038;-76